Time;durP1;ratioP1;P1;durP2;ratioP2;P2;SDS_P1;SDS_P2;PMS_P1;PMS_P2;Temp;Humidity;BMP_temperature;BMP_pressure;BME280_temperature;BME280_humidity;BME280_pressure;Samples;Min_cycle;Max_cycle;Signal;HPM_P1;HPM_P2
2023/10/12 00:00:24;;;;;;;1999.90;999.90;;;12.80;99.90;;;;;;5065770;28;20036;-72
2023/10/12 00:02:53;;;;;;;1999.90;999.90;;;12.80;99.90;;;;;;5044509;28;20052;-72
2023/10/12 00:05:20;;;;;;;1999.90;999.90;;;12.80;99.90;;;;;;5048828;28;20044;-72
2023/10/12 00:07:46;;;;;;;1999.90;999.90;;;12.80;99.90;;;;;;5031927;28;20041;-72
2023/10/12 00:12:46;;;;;;;1999.90;999.90;;;12.90;99.90;;;;;;5048251;28;20044;-72
2023/10/12 00:17:44;;;;;;;1999.90;999.90;;;12.90;99.90;;;;;;5045750;28;20052;-72
2023/10/12 00:20:21;;;;;;;1999.90;999.90;;;12.90;99.90;;;;;;5047875;28;20044;-72
2023/10/12 00:22:46;;;;;;;1999.90;999.90;;;12.90;99.90;;;;;;5048692;28;20056;-72
2023/10/12 00:25:16;;;;;;;1999.90;999.90;;;12.90;99.90;;;;;;5050660;28;20042;-72
2023/10/12 00:27:42;;;;;;;1999.90;999.90;;;12.90;99.90;;;;;;5043359;28;20037;-73
2023/10/12 00:30:09;;;;;;;1999.90;999.90;;;12.90;99.90;;;;;;5036151;28;20091;-72
2023/10/12 00:32:34;;;;;;;1999.90;999.90;;;12.90;99.90;;;;;;5048894;28;20048;-73
2023/10/12 00:35:00;;;;;;;1999.90;999.90;;;12.90;99.90;;;;;;5032381;28;20094;-72
2023/10/12 00:37:25;;;;;;;1999.90;999.90;;;12.90;99.90;;;;;;5047813;28;20032;-72
2023/10/12 00:42:18;;;;;;;1999.90;999.90;;;12.90;99.90;;;;;;5048353;28;20056;-72
2023/10/12 00:44:52;;;;;;;1999.90;999.90;;;13.00;99.90;;;;;;5046066;28;20045;-72
2023/10/12 00:48:07;;;;;;;1999.90;999.90;;;13.00;99.90;;;;;;5023676;28;20063;-72
2023/10/12 00:50:11;;;;;;;1999.90;999.90;;;13.00;99.90;;;;;;5037077;28;20867;-72
2023/10/12 00:52:56;;;;;;;1999.90;999.90;;;13.00;99.90;;;;;;5047407;28;20048;-72
2023/10/12 00:55:35;;;;;;;1999.90;999.90;;;13.00;99.90;;;;;;5048190;28;20068;-72
2023/10/12 00:58:04;;;;;;;1999.90;999.90;;;13.00;99.90;;;;;;5065155;28;20429;-72
2023/10/12 01:00:35;;;;;;;1999.90;999.90;;;13.00;99.90;;;;;;5047907;28;20041;-72
2023/10/12 01:03:19;;;;;;;1999.90;999.90;;;13.00;99.90;;;;;;5047665;28;20049;-72
2023/10/12 01:05:57;;;;;;;1999.90;999.90;;;13.00;99.90;;;;;;5027697;28;20432;-72
2023/10/12 01:08:23;;;;;;;1999.90;999.90;;;12.90;99.90;;;;;;5052420;28;20041;-72
2023/10/12 01:10:49;;;;;;;1999.90;999.90;;;12.90;99.90;;;;;;5031230;28;20044;-72
2023/10/12 01:13:14;;;;;;;1999.90;999.90;;;12.90;99.90;;;;;;5048016;28;20128;-73
2023/10/12 01:15:40;;;;;;;1999.90;999.90;;;12.90;99.90;;;;;;5029267;28;20131;-73
2023/10/12 01:18:09;;;;;;;1999.90;999.90;;;12.90;99.90;;;;;;5035753;28;20041;-72
2023/10/12 01:20:39;;;;;;;1999.90;999.90;;;12.90;99.90;;;;;;5047114;28;20130;-73
2023/10/12 01:23:04;;;;;;;1999.90;999.90;;;12.80;99.90;;;;;;5045260;28;20103;-72
2023/10/12 01:25:33;;;;;;;1999.90;999.90;;;12.90;99.90;;;;;;5041861;28;20037;-72
2023/10/12 01:28:05;;;;;;;1999.90;999.90;;;12.80;99.90;;;;;;5042317;28;20033;-73
2023/10/12 01:30:35;;;;;;;1999.90;999.90;;;12.90;99.90;;;;;;5062440;28;20068;-72
2023/10/12 01:33:04;;;;;;;1999.90;999.90;;;12.90;99.90;;;;;;5046777;28;20045;-72
2023/10/12 01:35:33;;;;;;;1999.90;999.90;;;12.90;99.90;;;;;;5045440;28;20045;-72
2023/10/12 01:38:05;;;;;;;1999.90;999.90;;;12.90;99.90;;;;;;5045469;28;20040;-72
2023/10/12 01:43:28;;;;;;;1999.90;999.90;;;12.80;99.90;;;;;;5044190;28;20114;-72
2023/10/12 01:46:00;;;;;;;1999.90;999.90;;;12.80;99.90;;;;;;5045884;28;20443;-72
2023/10/12 01:48:29;;;;;;;1999.90;999.90;;;12.80;99.90;;;;;;5030606;28;20416;-72
2023/10/12 01:50:56;;;;;;;1999.90;999.90;;;12.80;99.90;;;;;;5040276;28;20388;-72
2023/10/12 01:55:50;;;;;;;1999.90;999.90;;;12.80;99.90;;;;;;5038985;28;20115;-72
2023/10/12 01:58:20;;;;;;;1999.90;999.90;;;12.80;99.90;;;;;;5047448;28;20068;-72
2023/10/12 02:00:52;;;;;;;1999.90;999.90;;;12.80;99.90;;;;;;5036458;28;20088;-73
2023/10/12 02:08:52;;;;;;;1999.90;999.90;;;12.70;99.90;;;;;;5059107;28;20455;-72
2023/10/12 02:13:51;;;;;;;1999.90;999.90;;;12.70;99.90;;;;;;5046100;28;20496;-72
2023/10/12 02:16:31;;;;;;;1999.90;999.90;;;12.60;99.90;;;;;;5018036;28;20069;-72
2023/10/12 02:19:04;;;;;;;1999.90;999.90;;;12.60;99.90;;;;;;5047242;28;20095;-72
2023/10/12 02:21:34;;;;;;;1999.90;999.90;;;12.50;99.90;;;;;;5046105;28;20433;-72
2023/10/12 02:26:37;;;;;;;1999.90;999.90;;;12.50;99.90;;;;;;5058830;28;20046;-72
2023/10/12 02:34:21;;;;;;;1999.90;999.90;;;12.40;99.90;;;;;;5058274;28;20056;-72
2023/10/12 02:39:43;;;;;;;1999.90;999.90;;;12.40;99.90;;;;;;5045276;28;20049;-72
2023/10/12 02:47:29;;;;;;;1999.90;999.90;;;12.30;99.90;;;;;;5053096;28;20056;-72
2023/10/12 02:50:00;;;;;;;;;;;12.20;99.90;;;;;;5050266;28;20037;-72
2023/10/12 02:52:31;;;;;;;1999.90;999.90;;;12.20;99.90;;;;;;5052884;28;20419;-73
2023/10/12 02:55:06;;;;;;;1999.90;999.90;;;12.20;99.90;;;;;;5043327;28;20052;-72
2023/10/12 02:57:32;;;;;;;1999.90;999.90;;;12.20;99.90;;;;;;5051748;28;20053;-73
2023/10/12 03:00:12;;;;;;;1999.90;999.90;;;12.20;99.90;;;;;;5049600;28;20045;-73
2023/10/12 03:02:43;;;;;;;1999.90;999.90;;;12.10;99.90;;;;;;5051457;28;20055;-72
2023/10/12 03:05:17;;;;;;;1999.90;999.90;;;12.10;99.90;;;;;;5046925;28;20045;-72
2023/10/12 03:07:44;;;;;;;1999.90;999.90;;;12.10;99.90;;;;;;5050043;28;20037;-72
2023/10/12 03:10:25;;;;;;;1999.90;999.90;;;12.10;99.90;;;;;;5046203;28;20046;-72
2023/10/12 03:12:55;;;;;;;1999.90;999.90;;;12.00;99.90;;;;;;5023607;28;20116;-72
2023/10/12 03:15:40;;;;;;;1999.90;999.90;;;12.00;99.90;;;;;;5044410;28;20049;-72
2023/10/12 03:18:11;;;;;;;1999.90;999.90;;;12.00;99.90;;;;;;5030845;28;20044;-72
2023/10/12 03:20:37;;;;;;;1999.90;999.90;;;12.00;99.90;;;;;;5050280;28;20045;-72
2023/10/12 03:23:13;;;;;;;1999.90;999.90;;;12.00;99.90;;;;;;5033695;28;20048;-72
2023/10/12 03:25:46;;;;;;;1999.90;999.90;;;12.00;99.90;;;;;;5032673;28;20045;-72
2023/10/12 03:28:29;;;;;;;1999.90;999.90;;;12.00;99.90;;;;;;5050134;28;20449;-72
2023/10/12 03:31:10;;;;;;;1999.90;999.90;;;11.90;99.90;;;;;;5048921;28;20067;-72
2023/10/12 03:33:36;;;;;;;1999.90;999.90;;;11.90;99.90;;;;;;5048072;28;20420;-72
2023/10/12 03:36:22;;;;;;;1999.90;999.90;;;11.90;99.90;;;;;;5048672;28;20041;-72
2023/10/12 03:41:46;;;;;;;1999.90;999.90;;;11.90;99.90;;;;;;5058074;28;20097;-72
2023/10/12 03:44:21;;;;;;;1999.90;999.90;;;11.90;99.90;;;;;;5048616;28;20049;-72
2023/10/12 03:46:56;;;;;;;1999.90;999.90;;;11.80;99.90;;;;;;5046301;28;20045;-72
2023/10/12 03:49:31;;;;;;;1999.90;999.90;;;11.80;99.90;;;;;;5049350;28;20072;-72
2023/10/12 03:52:04;;;;;;;1999.90;999.90;;;11.90;99.90;;;;;;5051129;28;20202;-72
2023/10/12 03:54:31;;;;;;;1999.90;999.90;;;11.80;99.90;;;;;;5032041;28;20044;-72
2023/10/12 03:57:19;;;;;;;1999.90;999.90;;;11.80;99.90;;;;;;5058056;28;20052;-72
2023/10/12 04:00:22;;;;;;;1999.90;999.90;;;11.80;99.90;;;;;;5049317;28;20122;-72
2023/10/12 04:02:41;;;;;;;1999.90;999.90;;;11.80;99.90;;;;;;5052032;28;20118;-72
2023/10/12 04:13:08;;;;;;;;;;;11.80;99.90;;;;;;5045444;28;20041;-72
2023/10/12 04:18:18;;;;;;;1999.90;999.90;;;11.70;99.90;;;;;;5053928;28;20076;-72
2023/10/12 04:20:45;;;;;;;1999.90;999.90;;;11.70;99.90;;;;;;5032274;28;20138;-72
2023/10/12 04:25:59;;;;;;;1999.90;999.90;;;11.70;99.90;;;;;;5064321;28;20394;-72
2023/10/12 04:28:32;;;;;;;1999.90;999.90;;;11.60;99.90;;;;;;5058256;28;20118;-72
2023/10/12 04:33:29;;;;;;;1999.90;999.90;;;11.60;99.90;;;;;;5049058;28;20064;-72
2023/10/12 04:36:10;;;;;;;1999.90;999.90;;;11.60;99.90;;;;;;5047825;28;20088;-73
2023/10/12 04:41:23;;;;;;;1999.90;999.90;;;11.50;99.90;;;;;;5036652;28;20075;-72
2023/10/12 04:44:03;;;;;;;1999.90;999.90;;;11.50;99.90;;;;;;5047826;28;20095;-72
2023/10/12 04:46:38;;;;;;;1999.90;999.90;;;11.50;99.90;;;;;;5034478;28;20041;-72
2023/10/12 04:51:41;;;;;;;1999.90;999.90;;;11.40;99.90;;;;;;5046907;28;20092;-71
2023/10/12 04:54:26;;;;;;;1999.90;999.90;;;11.40;99.90;;;;;;5047511;28;20134;-72
2023/10/12 04:57:13;;;;;;;1999.90;999.90;;;11.40;99.90;;;;;;5034631;28;20049;-72
2023/10/12 05:00:00;;;;;;;1999.90;999.90;;;11.30;99.90;;;;;;5031371;28;20048;-72
2023/10/12 05:02:30;;;;;;;1999.90;999.90;;;11.30;99.90;;;;;;5049698;28;20128;-72
2023/10/12 05:07:27;;;;;;;1999.90;999.90;;;11.40;99.90;;;;;;5037861;28;20223;-72
2023/10/12 05:09:56;;;;;;;1999.90;999.90;;;11.40;99.90;;;;;;5047237;28;20045;-72
2023/10/12 05:12:23;;;;;;;1999.90;999.90;;;11.40;99.90;;;;;;5045469;28;20041;-72
2023/10/12 05:14:55;;;;;;;1999.90;999.90;;;11.40;99.90;;;;;;5046287;28;20059;-72
2023/10/12 05:17:24;;;;;;;1999.90;999.90;;;11.40;99.90;;;;;;5040367;28;20092;-72
2023/10/12 05:19:52;;;;;;;1999.90;999.90;;;11.40;99.90;;;;;;5046185;28;20072;-72
2023/10/12 05:22:18;;;;;;;1999.90;999.90;;;11.40;99.90;;;;;;5031072;28;20045;-71
2023/10/12 05:24:46;;;;;;;1999.90;999.90;;;11.40;99.90;;;;;;5045125;28;20127;-72
2023/10/12 05:27:26;;;;;;;1999.90;999.90;;;11.30;99.90;;;;;;5047830;28;20045;-71
2023/10/12 05:29:59;;;;;;;1999.90;999.90;;;11.30;99.90;;;;;;5045806;28;20033;-71
2023/10/12 05:32:37;;;;;;;1999.90;999.90;;;11.20;99.90;;;;;;5030609;28;20078;-72
2023/10/12 05:35:06;;;;;;;1999.90;999.90;;;11.20;99.90;;;;;;5044782;28;20447;-72
2023/10/12 05:37:38;;;;;;;1999.90;999.90;;;11.10;99.90;;;;;;5049476;28;20096;-71
2023/10/12 05:40:13;;;;;;;1999.90;999.90;;;11.00;99.90;;;;;;5030797;28;20040;-72
2023/10/12 05:42:39;;;;;;;1999.90;999.90;;;11.00;99.90;;;;;;5039760;28;20088;-72
2023/10/12 05:45:44;;;;;;;1999.90;999.90;;;10.90;99.90;;;;;;5042530;28;20044;-72
2023/10/12 05:47:58;;;;;;;1999.90;999.90;;;10.80;99.90;;;;;;5052481;28;20287;-71
2023/10/12 05:50:23;;;;;;;1999.90;999.90;;;10.70;99.90;;;;;;5050460;28;20127;-71
2023/10/12 05:53:01;;;;;;;1999.90;999.90;;;10.70;99.90;;;;;;5055896;28;20037;-72
2023/10/12 05:55:27;;;;;;;1999.90;999.90;;;10.60;99.90;;;;;;5046880;28;20045;-72
2023/10/12 05:57:55;;;;;;;1999.90;999.90;;;10.50;99.90;;;;;;5046847;28;20056;-72
2023/10/12 06:00:36;;;;;;;1999.90;999.90;;;10.50;99.90;;;;;;5029512;28;20090;-72
2023/10/12 06:03:04;;;;;;;1999.90;999.90;;;10.50;99.90;;;;;;5040377;28;20041;-72
2023/10/12 06:05:36;;;;;;;1999.90;999.90;;;10.40;99.90;;;;;;5041522;28;20057;-71
2023/10/12 06:08:05;;;;;;;1999.90;999.90;;;10.40;99.90;;;;;;5055183;28;20028;-72
2023/10/12 06:10:31;;;;;;;1999.90;999.90;;;10.30;99.90;;;;;;5043657;28;20478;-72
2023/10/12 06:12:57;;;;;;;1999.90;999.90;;;10.30;99.90;;;;;;5037332;28;20393;-72
2023/10/12 06:15:28;;;;;;;1999.90;999.90;;;10.30;99.90;;;;;;5046812;28;20060;-71
2023/10/12 06:17:55;;;;;;;1999.90;999.90;;;10.30;99.90;;;;;;5056211;28;20095;-72
2023/10/12 06:20:40;;;;;;;1999.90;999.90;;;10.30;99.90;;;;;;5050105;28;20087;-72
2023/10/12 06:23:08;;;;;;;1999.90;999.90;;;10.30;99.90;;;;;;5044979;28;20478;-71
2023/10/12 06:25:38;;;;;;;1999.90;999.90;;;10.30;99.90;;;;;;5048448;28;20041;-72
2023/10/12 06:28:14;;;;;;;1999.90;999.90;;;10.30;99.90;;;;;;5051135;28;20484;-71
2023/10/12 06:30:46;;;;;;;1999.90;999.90;;;10.30;99.90;;;;;;5045358;28;20053;-72
2023/10/12 06:33:15;;;;;;;1999.90;999.90;;;10.30;99.90;;;;;;5045437;28;20044;-71
2023/10/12 06:35:58;;;;;;;1999.90;999.90;;;10.30;99.90;;;;;;5042204;28;20103;-71
2023/10/12 06:38:38;;;;;;;1999.90;999.90;;;10.30;99.90;;;;;;5048625;28;20045;-72
2023/10/12 06:46:17;;;;;;;1999.90;999.90;;;10.20;99.90;;;;;;5045112;28;20400;-72
2023/10/12 06:48:47;;;;;;;1999.90;999.90;;;10.20;99.90;;;;;;5030233;28;20045;-72
2023/10/12 06:51:16;;;;;;;1999.90;999.90;;;10.20;99.90;;;;;;5050003;28;20505;-70
2023/10/12 06:53:45;;;;;;;1999.90;999.90;;;10.20;99.90;;;;;;5030777;28;20033;-69
2023/10/12 06:59:12;;;;;;;1999.90;999.90;;;10.30;99.90;;;;;;5051934;28;20068;-70
2023/10/12 07:04:15;;;;;;;1999.90;999.90;;;10.40;99.90;;;;;;5034988;28;20186;-70
2023/10/12 07:07:01;;;;;;;1999.90;999.90;;;10.40;99.90;;;;;;5035030;28;20400;-70
2023/10/12 07:09:42;;;;;;;1999.90;999.90;;;10.50;99.90;;;;;;5053739;28;20148;-69
2023/10/12 07:12:19;;;;;;;1999.90;999.90;;;10.60;99.90;;;;;;5051747;28;20508;-69
2023/10/12 07:14:55;;;;;;;1999.90;999.90;;;10.60;99.90;;;;;;5035530;28;20053;-72
2023/10/12 07:17:32;;;;;;;1999.90;999.90;;;10.80;99.90;;;;;;5030980;28;20408;-71
2023/10/12 07:19:58;;;;;;;1999.90;999.90;;;10.80;99.90;;;;;;5047647;28;20044;-71
2023/10/12 07:22:23;;;;;;;1999.90;999.90;;;11.00;99.90;;;;;;5050267;28;20052;-72
2023/10/12 07:24:56;;;;;;;1999.90;999.90;;;11.10;99.90;;;;;;5048517;28;20037;-72
2023/10/12 07:27:26;;;;;;;1999.90;999.90;;;11.20;99.90;;;;;;5032359;28;20042;-71
2023/10/12 07:30:08;;;;;;;1999.90;999.90;;;11.40;99.90;;;;;;5048078;28;20052;-71
2023/10/12 07:32:44;;;;;;;1999.90;999.90;;;11.50;99.90;;;;;;5045088;28;20044;-72
2023/10/12 07:35:28;;;;;;;1999.90;999.90;;;11.60;99.90;;;;;;5048581;28;20036;-70
2023/10/12 07:37:57;;;;;;;1999.90;999.90;;;11.80;99.90;;;;;;5032263;28;20074;-70
2023/10/12 07:40:23;;;;;;;1999.90;999.90;;;11.90;99.90;;;;;;5044946;28;20550;-69
2023/10/12 07:42:48;;;;;;;1999.90;999.90;;;12.10;99.90;;;;;;5042027;28;20045;-70
2023/10/12 07:45:18;;;;;;;1999.90;999.90;;;12.20;99.90;;;;;;5048247;28;20052;-70
2023/10/12 07:47:58;;;;;;;1999.90;999.90;;;12.30;99.90;;;;;;5048342;28;20477;-70
2023/10/12 07:50:28;;;;;;;1999.90;999.90;;;12.30;99.90;;;;;;5053953;28;20432;-69
2023/10/12 07:53:06;;;;;;;1999.90;999.90;;;12.40;99.90;;;;;;5032956;28;20052;-70
2023/10/12 07:55:41;;;;;;;1999.90;999.90;;;12.50;99.90;;;;;;5043917;28;20127;-70
2023/10/12 07:58:12;;;;;;;1999.90;999.90;;;12.50;99.90;;;;;;5043025;28;20040;-72
2023/10/12 08:00:41;;;;;;;1999.90;999.90;;;12.60;99.90;;;;;;5049939;28;20128;-72
2023/10/12 08:03:18;;;;;;;1999.90;999.90;;;12.60;99.90;;;;;;5033084;28;20505;-72
2023/10/12 08:05:56;;;;;;;1999.90;999.90;;;12.70;99.90;;;;;;5044745;28;20535;-72
2023/10/12 08:08:33;;;;;;;1999.90;999.90;;;12.70;99.90;;;;;;5038379;28;20044;-72
2023/10/12 08:11:08;;;;;;;1999.90;999.90;;;12.70;99.90;;;;;;5032486;28;20471;-72
2023/10/12 08:13:39;;;;;;;1999.90;999.90;;;12.80;99.90;;;;;;5045456;28;20037;-72
2023/10/12 08:16:05;;;;;;;1999.90;999.90;;;12.80;99.90;;;;;;5043588;28;20443;-72
2023/10/12 08:24:10;;;;;;;1999.90;999.90;;;12.90;99.90;;;;;;5041325;28;20472;-72
2023/10/12 08:29:09;;;;;;;1999.90;999.90;;;13.10;99.90;;;;;;5040896;28;20048;-72
2023/10/12 08:31:43;;;;;;;1999.90;999.90;;;13.20;99.90;;;;;;5018422;28;20095;-73
2023/10/12 08:39:38;;;;;;;1999.90;999.90;;;13.60;99.90;;;;;;5026195;28;20049;-73
2023/10/12 08:44:58;;;;;;;1999.90;999.90;;;13.80;99.90;;;;;;5048421;28;20044;-73
2023/10/12 08:47:44;;;;;;;1999.90;999.90;;;13.80;99.90;;;;;;5012772;28;20040;-72
2023/10/12 08:52:50;;;;;;;1999.90;999.90;;;14.10;99.90;;;;;;5044016;28;20372;-72
2023/10/12 08:55:19;;;;;;;1999.90;999.90;;;14.10;99.90;;;;;;5030623;28;20490;-72
2023/10/12 08:58:15;;;;;;;1999.90;999.90;;;14.20;99.90;;;;;;5023405;28;20039;-71
2023/10/12 09:03:38;;;;;;;1999.90;999.90;;;14.20;99.90;;;;;;5060920;28;20080;-71
2023/10/12 09:06:19;;;;;;;1999.90;999.90;;;14.30;99.90;;;;;;5041260;28;20048;-71
2023/10/12 09:08:46;;;;;;;1999.90;999.90;;;14.20;99.90;;;;;;5029532;28;20032;-71
2023/10/12 09:13:38;;;;;;;1999.90;999.90;;;14.40;99.90;;;;;;5051910;28;20045;-72
2023/10/12 09:16:10;;;;;;;1999.90;999.90;;;14.50;99.90;;;;;;5052603;28;20377;-71
2023/10/12 09:24:28;;;;;;;;;;;14.70;99.90;;;;;;5036464;28;20401;-72
2023/10/12 09:27:11;;;;;;;1999.90;999.90;;;14.90;99.90;;;;;;5029312;28;19996;-72
2023/10/12 09:29:42;;;;;;;1999.90;999.90;;;15.00;99.90;;;;;;5035714;28;20045;-72
2023/10/12 09:34:46;;;;;;;1999.90;999.90;;;15.00;99.90;;;;;;5040265;28;20056;-72
2023/10/12 09:37:16;;;;;;;1999.90;999.90;;;15.10;99.90;;;;;;5042459;28;20032;-72
2023/10/12 09:39:46;;;;;;;1999.90;999.90;;;15.20;99.90;;;;;;5031170;28;20036;-72
2023/10/12 09:42:22;;;;;;;1999.90;999.90;;;15.40;99.90;;;;;;5022044;28;20089;-72
2023/10/12 09:45:01;;;;;;;1999.90;999.90;;;15.60;99.90;;;;;;5053290;28;20091;-72
2023/10/12 09:47:43;;;;;;;1999.90;999.90;;;15.70;99.90;;;;;;5034731;28;20433;-71
2023/10/12 09:50:13;;;;;;;1999.90;999.90;;;15.80;99.90;;;;;;5037155;28;20043;-71
2023/10/12 09:52:57;;;;;;;1999.90;999.90;;;15.90;99.90;;;;;;5061411;28;20060;-72
2023/10/12 09:55:32;;;;;;;1999.90;999.90;;;16.10;99.90;;;;;;5042034;28;20094;-72
2023/10/12 09:58:12;;;;;;;1999.90;999.90;;;16.20;99.90;;;;;;5034503;28;20075;-72
2023/10/12 10:03:34;;;;;;;1999.90;999.90;;;16.50;99.90;;;;;;5039364;28;20056;-72
2023/10/12 10:06:10;;;;;;;1999.90;999.90;;;16.50;99.90;;;;;;5032749;28;20044;-71
2023/10/12 10:08:47;;;;;;;1999.90;999.90;;;16.60;99.90;;;;;;5047266;28;20043;-72
2023/10/12 10:11:14;;;;;;;1999.90;999.90;;;16.70;99.90;;;;;;5039407;28;20519;-71
2023/10/12 10:13:46;;;;;;;1999.90;999.90;;;16.90;99.90;;;;;;5054266;28;20496;-72
2023/10/12 10:16:15;;;;;;;1538.88;787.08;;;17.10;99.90;;;;;;5016832;28;20552;-72
2023/10/12 10:19:10;;;;;;;1999.90;999.90;;;17.10;99.90;;;;;;5053926;28;20044;-71
2023/10/12 10:21:38;;;;;;;1999.90;999.90;;;17.20;99.90;;;;;;5060265;28;20049;-72
2023/10/12 10:24:12;;;;;;;1999.90;999.90;;;17.40;99.90;;;;;;5045400;28;20049;-72
2023/10/12 10:26:39;;;;;;;1999.90;999.90;;;17.50;99.90;;;;;;5046516;28;20041;-71
2023/10/12 10:29:05;;;;;;;1999.90;999.90;;;17.60;99.90;;;;;;5043468;28;20049;-72
2023/10/12 10:31:36;;;;;;;1999.90;999.90;;;17.70;99.90;;;;;;5041930;28;20508;-71
2023/10/12 10:34:06;;;;;;;726.75;466.30;;;17.80;99.90;;;;;;5048875;28;20061;-72
2023/10/12 10:36:36;;;;;;;1999.90;999.90;;;17.70;99.90;;;;;;5037076;28;20089;-71
2023/10/12 10:39:28;;;;;;;293.15;279.70;;;17.80;99.90;;;;;;5043700;28;20036;-72
2023/10/12 10:41:54;;;;;;;1999.90;999.90;;;17.80;99.90;;;;;;5037094;28;20397;-71
2023/10/12 10:44:22;;;;;;;331.80;315.90;;;17.70;99.90;;;;;;5042178;28;20470;-72
2023/10/12 10:46:54;;;;;;;1999.90;999.90;;;17.80;99.90;;;;;;5035865;28;20052;-71
2023/10/12 10:49:21;;;;;;;1999.90;999.90;;;17.80;99.90;;;;;;5032976;28;20052;-72
2023/10/12 10:52:38;;;;;;;1999.90;999.90;;;17.90;99.90;;;;;;5027396;28;20052;-72
2023/10/12 10:54:39;;;;;;;1999.90;999.90;;;18.00;99.90;;;;;;5027293;28;20057;-71
2023/10/12 10:59:53;;;;;;;370.00;352.35;;;18.00;99.90;;;;;;5049887;28;20042;-72
2023/10/12 11:02:20;;;;;;;1999.90;999.90;;;17.90;99.90;;;;;;5041810;28;20047;-72
2023/10/12 11:04:47;;;;;;;1999.90;999.90;;;17.90;99.90;;;;;;5031697;28;20037;-71
2023/10/12 11:07:17;;;;;;;335.60;319.83;;;17.90;99.90;;;;;;5050330;28;20029;-71
2023/10/12 11:12:17;;;;;;;1999.90;999.90;;;17.60;99.90;;;;;;5030771;28;20049;-72
2023/10/12 11:14:52;;;;;;;778.35;514.70;;;17.40;99.90;;;;;;5036896;28;20049;-71
2023/10/12 11:17:21;;;;;;;252.43;241.23;;;17.20;99.90;;;;;;5049949;28;20401;-72
2023/10/12 11:19:49;;;;;;;283.90;270.33;;;17.10;99.90;;;;;;5031255;28;20546;-71
2023/10/12 11:22:15;;;;;;;421.33;400.48;;;17.00;99.90;;;;;;5032664;28;20409;-71
2023/10/12 11:24:49;;;;;;;1999.90;999.90;;;17.00;99.90;;;;;;5043971;28;20916;-72
2023/10/12 11:27:31;;;;;;;1999.90;999.90;;;17.00;99.90;;;;;;5033675;28;20040;-72
2023/10/12 11:30:00;;;;;;;352.65;335.77;;;17.10;99.90;;;;;;5032888;28;20295;-72
2023/10/12 11:32:28;;;;;;;1999.90;999.90;;;17.20;99.90;;;;;;5057279;28;20047;-72
2023/10/12 11:34:59;;;;;;;1999.90;999.90;;;17.20;99.90;;;;;;5050974;28;20083;-72
2023/10/12 11:37:29;;;;;;;1999.90;999.90;;;17.20;99.90;;;;;;5048056;28;20037;-72
2023/10/12 11:39:57;;;;;;;1999.90;999.90;;;17.30;99.90;;;;;;5047035;28;20053;-71
2023/10/12 11:42:23;;;;;;;1999.90;999.90;;;17.30;99.90;;;;;;5048968;28;20056;-72
2023/10/12 11:44:51;;;;;;;1999.90;999.90;;;17.20;99.90;;;;;;5050669;28;20469;-72
2023/10/12 11:47:25;;;;;;;1999.90;999.90;;;17.20;99.90;;;;;;5049955;28;20646;-72
2023/10/12 11:49:58;;;;;;;;;;;17.10;99.90;;;;;;5049138;28;20041;-72
2023/10/12 11:52:30;;;;;;;1999.90;999.90;;;17.10;99.90;;;;;;5050090;28;19917;-71
2023/10/12 11:55:06;;;;;;;1999.90;999.90;;;16.90;99.90;;;;;;5042180;28;20409;-72
2023/10/12 11:57:41;;;;;;;1999.90;999.90;;;16.90;99.90;;;;;;5057629;28;20037;-73
2023/10/12 12:02:57;;;;;;;1999.90;999.90;;;16.70;99.90;;;;;;5034973;28;20052;-71
2023/10/12 12:05:25;;;;;;;1999.90;999.90;;;16.70;99.90;;;;;;5046294;28;20076;-72
2023/10/12 12:07:51;;;;;;;1999.90;999.90;;;16.60;99.90;;;;;;5044814;28;20037;-73
2023/10/12 12:10:26;;;;;;;1999.90;999.90;;;16.60;99.90;;;;;;5046476;28;20037;-71
2023/10/12 12:12:52;;;;;;;1999.90;999.90;;;16.50;99.90;;;;;;5032583;28;20064;-71
2023/10/12 12:15:18;;;;;;;1999.90;999.90;;;16.40;99.90;;;;;;5057761;28;20045;-71
2023/10/12 12:17:46;;;;;;;1999.90;999.90;;;16.40;99.90;;;;;;5041565;28;20485;-72
2023/10/12 12:20:16;;;;;;;1999.90;999.90;;;16.30;99.90;;;;;;5042703;28;20489;-72
2023/10/12 12:22:44;;;;;;;1999.90;999.90;;;16.30;99.90;;;;;;5058233;28;20406;-72
2023/10/12 12:25:18;;;;;;;1999.90;999.90;;;16.30;99.90;;;;;;5048030;28;20056;-72
2023/10/12 12:27:48;;;;;;;1999.90;999.90;;;16.30;99.90;;;;;;5025208;28;20059;-71
2023/10/12 12:30:24;;;;;;;1999.90;999.90;;;16.30;99.90;;;;;;5038641;28;20036;-72
2023/10/12 12:32:50;;;;;;;1999.90;999.90;;;16.20;99.90;;;;;;5054922;28;20045;-72
2023/10/12 12:35:15;;;;;;;1999.90;999.90;;;16.10;99.90;;;;;;5029950;28;20048;-72
2023/10/12 12:37:41;;;;;;;1999.90;999.90;;;16.10;99.90;;;;;;5048827;28;20130;-72
2023/10/12 12:40:27;;;;;;;1999.90;999.90;;;16.10;99.90;;;;;;5049108;28;20177;-71
2023/10/12 12:42:53;;;;;;;1999.90;999.90;;;16.20;99.90;;;;;;5047777;28;20061;-72
2023/10/12 12:45:19;;;;;;;1999.90;999.90;;;16.20;99.90;;;;;;5040744;28;20052;-73
2023/10/12 12:47:44;;;;;;;1999.90;999.90;;;16.20;99.90;;;;;;5048570;28;20464;-72
2023/10/12 12:50:10;;;;;;;1999.90;999.90;;;16.10;99.90;;;;;;5047327;28;20436;-72
2023/10/12 12:52:36;;;;;;;1999.90;999.90;;;16.10;99.90;;;;;;5043661;28;20120;-73
2023/10/12 12:55:10;;;;;;;1999.90;999.90;;;16.10;99.90;;;;;;5048315;28;20264;-72
2023/10/12 12:57:39;;;;;;;1999.90;999.90;;;16.10;99.90;;;;;;5050613;28;20423;-72
2023/10/12 13:00:08;;;;;;;1999.90;999.90;;;16.10;99.90;;;;;;5047512;28;20044;-73
2023/10/12 13:02:33;;;;;;;1999.90;999.90;;;16.10;99.90;;;;;;5048219;28;20418;-72
2023/10/12 13:05:04;;;;;;;1999.90;999.90;;;16.10;99.90;;;;;;5048949;28;20047;-72
2023/10/12 13:07:31;;;;;;;1999.90;999.90;;;16.20;99.90;;;;;;5048013;28;20043;-72
2023/10/12 13:09:57;;;;;;;1999.90;999.90;;;16.20;99.90;;;;;;5047282;28;20072;-72
2023/10/12 13:12:23;;;;;;;1999.90;999.90;;;16.20;99.90;;;;;;5043215;28;20075;-72
2023/10/12 13:14:49;;;;;;;1999.90;999.90;;;16.10;99.90;;;;;;5047384;28;20081;-72
2023/10/12 13:17:16;;;;;;;1999.90;999.90;;;16.10;99.90;;;;;;5030923;28;20055;-72
2023/10/12 13:19:44;;;;;;;1999.90;999.90;;;16.10;99.90;;;;;;5037513;28;20461;-72
2023/10/12 13:22:10;;;;;;;1999.90;999.90;;;16.10;99.90;;;;;;5047974;28;20523;-73
2023/10/12 13:24:37;;;;;;;1999.90;999.90;;;16.00;99.90;;;;;;5049243;28;20049;-72
2023/10/12 13:27:08;;;;;;;1999.90;999.90;;;16.00;99.90;;;;;;5061635;28;20091;-72
2023/10/12 13:29:34;;;;;;;1999.90;999.90;;;16.00;99.90;;;;;;5046072;28;20049;-72
2023/10/12 13:32:00;;;;;;;1999.90;999.90;;;16.00;99.90;;;;;;5045685;28;20072;-72
2023/10/12 13:34:27;;;;;;;1999.90;999.90;;;15.90;99.90;;;;;;5046595;28;20045;-73
2023/10/12 13:36:52;;;;;;;1999.90;999.90;;;15.90;99.90;;;;;;5047207;28;20051;-72
2023/10/12 13:39:18;;;;;;;1999.90;999.90;;;15.90;99.90;;;;;;5047608;28;20048;-72
2023/10/12 13:41:43;;;;;;;1999.90;999.90;;;15.90;99.90;;;;;;5030529;28;20136;-72
2023/10/12 13:44:09;;;;;;;1999.90;999.90;;;15.80;99.90;;;;;;5047329;28;20056;-72
2023/10/12 13:46:35;;;;;;;1999.90;999.90;;;15.70;99.90;;;;;;5046311;28;20041;-72
2023/10/12 13:49:02;;;;;;;1999.90;999.90;;;15.60;99.90;;;;;;5040459;28;20049;-72
2023/10/12 13:51:31;;;;;;;1999.90;999.90;;;15.50;99.90;;;;;;5045979;28;20080;-72
2023/10/12 13:54:00;;;;;;;1999.90;999.90;;;15.40;99.90;;;;;;5038581;28;20036;-72
2023/10/12 13:56:26;;;;;;;1999.90;999.90;;;15.30;99.90;;;;;;5053639;28;20051;-73
2023/10/12 13:58:52;;;;;;;1999.90;999.90;;;15.20;99.90;;;;;;5047185;28;20174;-72
2023/10/12 14:01:20;;;;;;;1999.90;999.90;;;15.10;99.90;;;;;;5046488;28;20119;-72
2023/10/12 14:03:53;;;;;;;1999.90;999.90;;;15.10;99.90;;;;;;5045840;28;20052;-72
2023/10/12 14:06:20;;;;;;;1999.90;999.90;;;15.10;99.90;;;;;;5047032;28;20048;-73
2023/10/12 14:08:46;;;;;;;1999.90;999.90;;;15.10;99.90;;;;;;5044527;28;20099;-73
2023/10/12 14:11:19;;;;;;;1999.90;999.90;;;15.10;99.90;;;;;;5047171;28;20115;-72
2023/10/12 14:13:45;;;;;;;1999.90;999.90;;;15.10;99.90;;;;;;5046470;28;20037;-73
2023/10/12 14:16:12;;;;;;;1999.90;999.90;;;15.10;99.90;;;;;;5045654;28;20040;-73
2023/10/12 14:18:39;;;;;;;1999.90;999.90;;;15.00;99.90;;;;;;5052372;28;20044;-73